createdAt,value
2023-01-19T00:00:17.974Z,17.80
2023-01-19T00:03:19.635Z,21.97
2023-01-19T00:06:21.538Z,17.47
2023-01-19T00:09:23.257Z,20.13
2023-01-19T00:12:25.901Z,19.53
2023-01-19T00:15:27.615Z,17.43
2023-01-19T00:18:29.353Z,17.63
2023-01-19T00:21:31.072Z,16.90
2023-01-19T00:24:33.065Z,18.30
2023-01-19T00:27:34.914Z,19.47
2023-01-19T00:30:37.513Z,17.40
2023-01-19T00:33:39.312Z,15.40
2023-01-19T00:36:41.645Z,16.73
2023-01-19T00:39:43.621Z,12.33
2023-01-19T00:42:45.815Z,18.70
2023-01-19T00:45:47.599Z,16.23
2023-01-19T00:48:49.261Z,17.17
2023-01-19T00:51:51.003Z,16.93
2023-01-19T00:54:52.689Z,15.83
2023-01-19T00:57:54.895Z,23.33
2023-01-19T01:01:03.370Z,17.63
2023-01-19T01:04:05.532Z,15.30
2023-01-19T01:07:07.420Z,19.23
2023-01-19T01:10:11.262Z,16.23
2023-01-19T01:13:22.565Z,19.27
2023-01-19T01:16:25.480Z,21.70
2023-01-19T01:19:27.144Z,21.77
2023-01-19T01:22:28.841Z,19.27
2023-01-19T01:25:31.146Z,15.50
2023-01-19T01:28:33.111Z,19.73
2023-01-19T01:31:34.983Z,16.83
2023-01-19T01:34:36.593Z,16.83
2023-01-19T01:37:38.535Z,18.23
2023-01-19T01:40:41.095Z,17.10
2023-01-19T01:43:58.132Z,18.73
2023-01-19T01:47:03.759Z,17.50
2023-01-19T01:50:15.865Z,16.90
2023-01-19T01:53:17.551Z,17.80
2023-01-19T01:56:25.991Z,22.70
2023-01-19T01:59:39.023Z,15.90
2023-01-19T02:02:55.011Z,16.87
2023-01-19T02:06:01.890Z,20.93
2023-01-19T02:09:26.948Z,15.70
2023-01-19T02:12:47.421Z,16.17
2023-01-19T02:15:54.582Z,17.43
2023-01-19T02:18:57.904Z,18.00
2023-01-19T02:22:14.764Z,17.20
2023-01-19T02:25:18.165Z,16.57
2023-01-19T02:28:20.066Z,20.00
2023-01-19T02:31:21.917Z,20.43
2023-01-19T02:34:23.721Z,22.50
2023-01-19T02:37:28.026Z,21.20
2023-01-19T02:40:30.399Z,20.07
2023-01-19T02:43:33.342Z,15.90
2023-01-19T02:46:35.156Z,16.50
2023-01-19T02:49:37.491Z,20.53
2023-01-19T02:52:39.140Z,18.30
2023-01-19T02:55:44.945Z,20.10
2023-01-19T02:59:04.452Z,17.70
2023-01-19T03:02:34.090Z,18.33
2023-01-19T03:06:22.362Z,16.90
2023-01-19T03:09:44.871Z,17.17
2023-01-19T03:13:04.004Z,19.00
2023-01-19T03:16:15.323Z,18.60
2023-01-19T03:19:22.030Z,19.93
2023-01-19T03:22:29.580Z,17.90
2023-01-19T03:25:35.236Z,18.87
2023-01-19T03:28:40.383Z,19.73
2023-01-19T03:31:46.059Z,21.90
2023-01-19T03:34:50.249Z,21.57
2023-01-19T03:37:55.798Z,20.20
2023-01-19T03:41:02.361Z,21.00
2023-01-19T03:44:07.293Z,24.37
2023-01-19T03:47:11.346Z,21.03
2023-01-19T03:50:27.495Z,22.10
2023-01-19T03:53:29.044Z,21.60
2023-01-19T03:56:31.041Z,26.23
2023-01-19T03:59:32.882Z,26.33
2023-01-19T04:02:34.626Z,22.57
2023-01-19T04:05:37.611Z,26.57
2023-01-19T04:08:40.670Z,27.93
2023-01-19T04:11:42.720Z,25.60
2023-01-19T04:14:44.361Z,23.70
2023-01-19T04:17:46.116Z,30.93
2023-01-19T04:20:47.834Z,25.70
2023-01-19T04:23:49.939Z,27.17
2023-01-19T04:26:53.427Z,26.63
2023-01-19T04:29:55.095Z,27.10
2023-01-19T04:32:59.667Z,25.17
2023-01-19T04:36:01.904Z,26.20
2023-01-19T04:39:04.983Z,24.47
2023-01-19T04:42:06.719Z,27.20
2023-01-19T04:45:09.130Z,26.30
2023-01-19T04:48:11.788Z,27.70
2023-01-19T04:51:13.451Z,25.30
2023-01-19T04:54:15.184Z,24.07
2023-01-19T04:57:19.712Z,27.10
2023-01-19T05:00:21.595Z,29.93
2023-01-19T05:03:25.622Z,27.70
2023-01-19T05:06:28.188Z,23.80
2023-01-19T05:09:29.901Z,20.80
2023-01-19T05:12:31.602Z,25.70
2023-01-19T05:15:33.278Z,22.50
2023-01-19T05:18:36.888Z,23.00
2023-01-19T05:21:38.718Z,22.27
2023-01-19T05:24:40.481Z,25.10
2023-01-19T05:27:42.191Z,21.47
2023-01-19T05:30:46.885Z,23.53
2023-01-19T05:33:49.100Z,26.33
2023-01-19T05:36:51.407Z,23.47
2023-01-19T05:39:56.262Z,21.10
2023-01-19T05:43:01.516Z,18.00
2023-01-19T05:46:05.304Z,24.03
2023-01-19T05:49:07.426Z,23.63
2023-01-19T05:52:09.094Z,31.93
2023-01-19T05:55:10.701Z,26.03
2023-01-19T05:58:12.361Z,22.97
2023-01-19T06:01:16.082Z,26.30
2023-01-19T06:04:18.053Z,23.77
2023-01-19T06:07:19.735Z,23.27
2023-01-19T06:10:21.445Z,27.03
2023-01-19T06:13:23.082Z,25.07
2023-01-19T06:16:24.715Z,26.57
2023-01-19T06:19:26.416Z,27.50
2023-01-19T06:22:28.142Z,23.50
2023-01-19T06:25:30.208Z,24.80
2023-01-19T06:28:32.029Z,23.70
2023-01-19T06:31:33.640Z,24.30
2023-01-19T06:34:35.219Z,25.53
2023-01-19T06:37:36.902Z,24.87
2023-01-19T06:40:38.492Z,22.20
2023-01-19T06:43:40.040Z,25.27
2023-01-19T06:46:41.776Z,26.97
2023-01-19T06:49:43.607Z,28.37
2023-01-19T06:52:45.424Z,24.63
2023-01-19T06:55:47.297Z,26.53
2023-01-19T06:58:50.364Z,25.30
2023-01-19T07:01:52.099Z,22.47
2023-01-19T07:04:53.741Z,27.03
2023-01-19T07:07:56.466Z,26.40
2023-01-19T07:11:25.800Z,24.97
2023-01-19T07:14:34.281Z,24.73
2023-01-19T07:17:38.817Z,26.53
2023-01-19T07:20:40.490Z,25.03
2023-01-19T07:23:43.252Z,30.50
2023-01-19T07:26:44.868Z,29.20
2023-01-19T07:29:46.453Z,28.00
2023-01-19T07:32:48.349Z,28.60
2023-01-19T07:35:50.874Z,23.80
2023-01-19T07:38:52.499Z,25.97
2023-01-19T07:41:54.237Z,26.60
2023-01-19T07:44:55.841Z,25.60
2023-01-19T07:47:57.448Z,22.07
2023-01-19T07:51:11.050Z,26.10
2023-01-19T07:54:14.023Z,25.90
2023-01-19T07:57:15.601Z,24.73
2023-01-19T08:00:21.725Z,23.20
2023-01-19T08:03:23.707Z,21.23
2023-01-19T08:06:33.201Z,22.70
2023-01-19T08:09:34.906Z,25.20
2023-01-19T08:12:36.449Z,20.40
2023-01-19T08:15:38.478Z,24.27
2023-01-19T08:18:40.262Z,25.97
2023-01-19T08:21:41.881Z,27.10
2023-01-19T08:24:43.658Z,23.83
2023-01-19T08:27:45.254Z,28.67
2023-01-19T08:30:53.854Z,30.73
2023-01-19T08:33:55.713Z,28.17
2023-01-19T08:36:58.306Z,23.80
2023-01-19T08:39:59.961Z,24.43
2023-01-19T08:43:05.710Z,25.90
2023-01-19T08:46:07.407Z,22.33
2023-01-19T08:49:09.225Z,28.10
2023-01-19T08:52:10.805Z,26.07
2023-01-19T08:55:12.403Z,25.23
2023-01-19T08:58:14.013Z,27.60
2023-01-19T09:01:16.887Z,23.17
2023-01-19T09:04:18.717Z,22.90
2023-01-19T09:07:20.399Z,27.00
2023-01-19T09:10:22.105Z,23.80
2023-01-19T09:13:23.798Z,21.17
2023-01-19T09:16:27.064Z,20.80
2023-01-19T09:19:28.899Z,20.83
2023-01-19T09:22:30.576Z,23.57
2023-01-19T09:25:32.730Z,20.70
2023-01-19T09:28:34.516Z,22.60
2023-01-19T09:31:36.827Z,18.93
2023-01-19T09:34:41.505Z,21.77
2023-01-19T09:37:47.091Z,17.87
2023-01-19T09:40:53.172Z,18.60
2023-01-19T09:43:57.706Z,20.77
2023-01-19T09:47:01.757Z,27.60
2023-01-19T09:50:06.619Z,25.00
2023-01-19T09:53:21.228Z,22.90
2023-01-19T09:56:24.017Z,24.13
2023-01-19T09:59:31.351Z,24.63
2023-01-19T10:02:38.922Z,25.97
2023-01-19T10:06:05.987Z,24.17
2023-01-19T10:09:28.677Z,21.60
2023-01-19T10:12:51.692Z,24.53
2023-01-19T10:15:59.968Z,19.20
2023-01-19T10:19:25.932Z,29.00
2023-01-19T10:22:28.961Z,25.80
2023-01-19T10:25:30.968Z,24.00
2023-01-19T10:28:33.272Z,20.20
2023-01-19T10:31:39.422Z,20.63
2023-01-19T10:34:41.604Z,22.30
2023-01-19T10:37:44.617Z,22.33
2023-01-19T10:40:56.170Z,20.53
2023-01-19T10:44:03.412Z,22.43
2023-01-19T10:47:16.677Z,23.07
2023-01-19T10:50:28.262Z,27.87
2023-01-19T10:53:29.992Z,20.20
2023-01-19T10:56:35.298Z,22.23
2023-01-19T10:59:44.215Z,18.03
2023-01-19T11:02:51.975Z,19.40
2023-01-19T11:05:53.732Z,25.10
2023-01-19T11:09:20.227Z,21.57
2023-01-19T11:12:23.711Z,22.93
2023-01-19T11:15:33.336Z,18.27
2023-01-19T11:18:37.523Z,19.77
2023-01-19T11:21:39.276Z,18.23
2023-01-19T11:24:41.494Z,22.33
2023-01-19T11:27:51.451Z,22.17
2023-01-19T11:30:57.818Z,25.33
2023-01-19T11:34:00.944Z,20.70
2023-01-19T11:37:17.114Z,18.17
2023-01-19T11:40:18.868Z,16.70
2023-01-19T11:43:22.915Z,15.60
2023-01-19T11:46:31.332Z,15.70
2023-01-19T11:50:04.443Z,15.87
2023-01-19T11:53:21.691Z,17.30
2023-01-19T11:56:26.464Z,13.87
2023-01-19T11:59:28.363Z,12.70
2023-01-19T12:02:46.241Z,16.40
2023-01-19T12:05:51.544Z,12.77
2023-01-19T12:08:57.779Z,13.57
2023-01-19T12:12:11.804Z,17.40
2023-01-19T12:15:34.885Z,15.83
2023-01-19T12:18:42.036Z,16.67
2023-01-19T12:21:48.053Z,14.50
2023-01-19T12:25:14.793Z,15.63
2023-01-19T12:28:17.923Z,13.77
2023-01-19T12:31:22.591Z,18.63
2023-01-19T12:34:31.415Z,14.20
2023-01-19T12:37:43.848Z,22.37
2023-01-19T12:40:45.871Z,13.83
2023-01-19T12:43:49.418Z,14.60
2023-01-19T12:47:20.985Z,14.53
2023-01-19T12:50:25.722Z,13.17
2023-01-19T12:53:27.555Z,13.93
2023-01-19T12:56:36.326Z,19.47
2023-01-19T12:59:39.312Z,16.63
2023-01-19T13:02:46.491Z,22.37
2023-01-19T13:05:54.117Z,19.07
2023-01-19T13:08:58.287Z,15.90
2023-01-19T13:12:14.976Z,21.30
2023-01-19T13:15:35.154Z,19.83
2023-01-19T13:18:41.355Z,17.60
2023-01-19T13:21:48.103Z,18.03
2023-01-19T13:25:12.762Z,19.63
2023-01-19T13:28:16.658Z,16.80
2023-01-19T13:31:19.403Z,15.10
2023-01-19T13:34:27.660Z,16.87
2023-01-19T13:37:46.979Z,18.40
2023-01-19T13:40:49.404Z,17.77
2023-01-19T13:44:08.339Z,11.27
2023-01-19T13:47:18.833Z,15.33
2023-01-19T13:50:23.325Z,13.93
2023-01-19T13:53:25.197Z,14.40
2023-01-19T13:56:28.909Z,12.50
2023-01-19T13:59:30.628Z,12.13
2023-01-19T14:02:32.592Z,11.63
2023-01-19T14:05:36.378Z,10.97
2023-01-19T14:08:38.054Z,15.63
2023-01-19T14:11:47.697Z,16.27
2023-01-19T14:14:49.465Z,11.40
2023-01-19T14:18:14.585Z,14.67
2023-01-19T14:21:16.470Z,10.17
2023-01-19T14:24:19.512Z,10.67
2023-01-19T14:27:24.492Z,10.47
2023-01-19T14:30:26.896Z,11.93
2023-01-19T14:33:43.606Z,12.70
2023-01-19T14:36:45.253Z,15.00
2023-01-19T14:39:51.203Z,18.30
2023-01-19T14:42:57.365Z,18.87
2023-01-19T14:45:59.417Z,16.97
2023-01-19T14:49:13.468Z,33.70
2023-01-19T14:52:27.448Z,13.73
2023-01-19T14:55:45.239Z,18.23
2023-01-19T14:58:52.918Z,19.83
2023-01-19T15:01:58.237Z,14.27
2023-01-19T15:05:29.851Z,15.97
2023-01-19T15:08:50.035Z,18.73
2023-01-19T15:11:54.531Z,17.03
2023-01-19T15:16:01.010Z,15.97
2023-01-19T15:19:25.480Z,17.70
2023-01-19T15:22:38.316Z,18.50
2023-01-19T15:25:45.178Z,15.40
2023-01-19T15:28:50.802Z,16.80
2023-01-19T15:31:55.689Z,16.90
2023-01-19T15:35:11.435Z,13.13
2023-01-19T15:38:33.615Z,21.98
2023-01-19T15:41:39.723Z,21.13
2023-01-19T15:45:01.950Z,19.50
2023-01-19T15:48:14.698Z,17.17
2023-01-19T15:51:21.332Z,16.70
2023-01-19T15:54:23.512Z,19.80
2023-01-19T15:57:25.391Z,17.63
2023-01-19T16:00:32.336Z,21.00
2023-01-19T16:03:34.078Z,17.97
2023-01-19T16:06:38.725Z,20.03
2023-01-19T16:09:44.019Z,24.30
2023-01-19T16:12:47.642Z,22.50
2023-01-19T16:15:49.653Z,23.50
2023-01-19T16:18:51.932Z,20.40
2023-01-19T16:21:53.987Z,20.30
2023-01-19T16:24:56.356Z,29.57
2023-01-19T16:27:58.325Z,27.23
2023-01-19T16:31:00.099Z,28.90
2023-01-19T16:34:03.048Z,24.23
2023-01-19T16:37:04.924Z,23.80
2023-01-19T16:40:09.598Z,31.73
2023-01-19T16:43:17.412Z,32.50
2023-01-19T16:46:24.782Z,30.13
2023-01-19T16:49:28.536Z,29.20
2023-01-19T16:52:30.550Z,28.10
2023-01-19T16:55:32.907Z,33.23
2023-01-19T16:58:37.386Z,26.30
2023-01-19T17:01:39.795Z,33.00
2023-01-19T17:04:41.436Z,30.27
2023-01-19T17:07:58.400Z,28.20
2023-01-19T17:11:02.794Z,24.33
2023-01-19T17:14:07.642Z,29.97
2023-01-19T17:17:11.912Z,51.23
2023-01-19T17:20:16.301Z,37.70
2023-01-19T17:23:17.952Z,37.33
2023-01-19T17:26:20.734Z,41.90
2023-01-19T17:29:22.424Z,34.00
2023-01-19T17:32:24.061Z,47.10
2023-01-19T17:35:25.682Z,34.73
2023-01-19T17:38:28.553Z,33.40
2023-01-19T17:41:32.465Z,35.83
2023-01-19T17:44:34.194Z,35.10
2023-01-19T17:47:35.764Z,34.97
2023-01-19T17:50:37.619Z,34.97
2023-01-19T17:53:41.168Z,40.67
2023-01-19T17:56:42.801Z,34.93
2023-01-19T17:59:44.504Z,32.63
2023-01-19T18:02:50.523Z,35.40
2023-01-19T18:05:55.924Z,30.37
2023-01-19T18:08:59.716Z,34.83
2023-01-19T18:12:01.517Z,32.13
2023-01-19T18:15:04.996Z,28.53
2023-01-19T18:18:06.685Z,21.70
2023-01-19T18:21:10.785Z,31.70
2023-01-19T18:24:12.401Z,30.43
2023-01-19T18:27:16.232Z,28.70
2023-01-19T18:30:18.300Z,27.07
2023-01-19T18:33:20.494Z,31.37
2023-01-19T18:36:22.141Z,31.70
2023-01-19T18:39:23.727Z,28.97
2023-01-19T18:42:25.349Z,32.20
2023-01-19T18:45:26.973Z,22.43
2023-01-19T18:48:28.846Z,29.67
2023-01-19T18:51:30.547Z,26.20
2023-01-19T18:54:32.300Z,29.60
2023-01-19T18:57:35.501Z,32.83
2023-01-19T19:00:37.219Z,29.13
2023-01-19T19:03:38.849Z,26.77
2023-01-19T19:06:40.444Z,30.33
2023-01-19T19:09:42.035Z,27.33
2023-01-19T19:12:43.725Z,36.83
2023-01-19T19:15:45.330Z,29.97
2023-01-19T19:18:49.941Z,27.30
2023-01-19T19:21:53.478Z,31.00
2023-01-19T19:24:55.074Z,29.40
2023-01-19T19:27:56.614Z,23.07
2023-01-19T19:31:11.396Z,24.73
2023-01-19T19:34:13.162Z,25.87
2023-01-19T19:37:15.235Z,23.47
2023-01-19T19:40:17.264Z,23.80
2023-01-19T19:43:19.219Z,25.10
2023-01-19T19:46:24.025Z,25.93
2023-01-19T19:49:27.089Z,24.63
2023-01-19T19:52:28.644Z,22.50
2023-01-19T19:55:30.289Z,27.03
2023-01-19T19:58:32.076Z,29.50
2023-01-19T20:01:34.308Z,29.73
2023-01-19T20:04:36.183Z,28.03
2023-01-19T20:07:38.991Z,29.70
2023-01-19T20:10:40.556Z,26.77
2023-01-19T20:13:43.724Z,27.73
2023-01-19T20:16:45.430Z,21.30
2023-01-19T20:19:48.803Z,21.10
2023-01-19T20:22:50.445Z,24.27
2023-01-19T20:25:52.508Z,22.53
2023-01-19T20:28:56.659Z,25.10
2023-01-19T20:31:58.294Z,27.80
2023-01-19T20:35:00.166Z,22.73
2023-01-19T20:38:01.723Z,23.07
2023-01-19T20:41:03.497Z,21.23
2023-01-19T20:44:05.086Z,24.50
2023-01-19T20:47:06.815Z,24.17
2023-01-19T20:50:09.111Z,24.17
2023-01-19T20:53:10.702Z,21.80
2023-01-19T20:56:14.158Z,26.10
2023-01-19T20:59:16.111Z,28.73
2023-01-19T21:02:17.891Z,25.70
2023-01-19T21:05:19.836Z,27.10
2023-01-19T21:08:21.599Z,20.97
2023-01-19T21:11:24.059Z,27.17
2023-01-19T21:14:25.754Z,27.03
2023-01-19T21:17:27.331Z,20.27
2023-01-19T21:20:33.102Z,22.00
2023-01-19T21:23:34.714Z,18.83
2023-01-19T21:26:37.731Z,18.60
2023-01-19T21:29:40.699Z,19.17
2023-01-19T21:32:42.547Z,24.60
2023-01-19T21:35:55.575Z,20.27
2023-01-19T21:39:00.543Z,18.50
2023-01-19T21:42:02.605Z,20.93
2023-01-19T21:45:04.593Z,19.33
2023-01-19T21:48:06.526Z,22.47
2023-01-19T21:51:08.861Z,21.53
2023-01-19T21:54:10.827Z,19.70
2023-01-19T21:57:15.104Z,20.23
2023-01-19T22:00:17.402Z,17.60
2023-01-19T22:03:19.043Z,19.77
2023-01-19T22:06:21.197Z,23.23
2023-01-19T22:09:22.785Z,16.87
2023-01-19T22:12:24.412Z,19.67
2023-01-19T22:15:26.089Z,21.47
2023-01-19T22:18:28.007Z,24.23
2023-01-19T22:21:32.502Z,19.83
2023-01-19T22:24:34.109Z,21.93
2023-01-19T22:27:37.316Z,17.17
2023-01-19T22:30:39.133Z,17.97
2023-01-19T22:33:41.749Z,22.17
2023-01-19T22:36:43.547Z,18.07
2023-01-19T22:39:45.129Z,17.07
2023-01-19T22:42:47.992Z,22.60
2023-01-19T22:45:49.657Z,21.00
2023-01-19T22:48:52.088Z,19.30
2023-01-19T22:51:54.323Z,23.00
2023-01-19T22:54:58.085Z,22.97
2023-01-19T22:57:59.633Z,21.40
2023-01-19T23:01:09.357Z,21.80
2023-01-19T23:04:14.401Z,22.10
2023-01-19T23:07:16.038Z,22.47
2023-01-19T23:10:17.696Z,21.23
2023-01-19T23:13:19.314Z,22.80
2023-01-19T23:16:21.411Z,23.43
2023-01-19T23:19:22.999Z,19.37
2023-01-19T23:22:24.611Z,23.90
2023-01-19T23:25:26.253Z,27.10
2023-01-19T23:28:27.854Z,25.83
2023-01-19T23:31:32.340Z,25.90
2023-01-19T23:34:34.089Z,27.03
2023-01-19T23:37:35.695Z,20.67
2023-01-19T23:40:38.449Z,22.63
2023-01-19T23:43:40.085Z,23.50
2023-01-19T23:46:41.821Z,24.60
2023-01-19T23:49:43.420Z,22.97
2023-01-19T23:52:45.051Z,30.40
2023-01-19T23:55:46.666Z,23.87
2023-01-19T23:58:53.212Z,19.40
